East Vandergrift, Pennsylvania
Current Conditions -  °F | °C
As of 7:55 PM on Tuesday 21 Oct 2014 (Local Time) from KBTP Reporting Station
Overcast Overcast  
Wind Chill: 44°   Ceiling: 900
Heat Index: 46°   Visibility: 10mi
Dew Point: 43°   Wind: 5mph
Humidity: 87%   Direction: 300°WNW
Pressure: 30"   Gusts: NA
Location:  40.6°N, 79.56°W
Report Text: KBTP 212355Z AUTO 30004KT 10SM BKN009 OVC018 08/06 A3000 RMK AO1 60001 10110 20080 401100080 52020
Loading
Personal Weather Stations






























Interactive Weather Map
Tropical Storm Tracking
New forecast layout! Learn more

10-Day Weather Forecast

Advertisements
Track Severe Weather on mobile